sensor_id;sensor_type;location;lat;lon;timestamp;P1;durP1;ratioP1;P2;durP2;ratioP2
8397;SDS011;4236;54.504;9.588;2023-05-10T00:01:36;5.93;;;5.50;;
8397;SDS011;4236;54.504;9.588;2023-05-10T00:04:04;5.90;;;5.50;;
8397;SDS011;4236;54.504;9.588;2023-05-10T00:06:33;8.33;;;6.13;;
8397;SDS011;4236;54.504;9.588;2023-05-10T00:09:01;6.40;;;5.80;;
8397;SDS011;4236;54.504;9.588;2023-05-10T00:11:29;6.57;;;5.97;;
8397;SDS011;4236;54.504;9.588;2023-05-10T00:13:57;6.10;;;5.70;;
8397;SDS011;4236;54.504;9.588;2023-05-10T00:16:24;6.70;;;6.20;;
8397;SDS011;4236;54.504;9.588;2023-05-10T00:18:52;5.90;;;5.50;;
8397;SDS011;4236;54.504;9.588;2023-05-10T00:21:22;6.60;;;6.10;;
8397;SDS011;4236;54.504;9.588;2023-05-10T00:23:51;5.93;;;5.43;;
8397;SDS011;4236;54.504;9.588;2023-05-10T00:26:18;6.60;;;6.00;;
8397;SDS011;4236;54.504;9.588;2023-05-10T00:28:48;7.53;;;6.90;;
8397;SDS011;4236;54.504;9.588;2023-05-10T00:31:15;5.90;;;5.50;;
8397;SDS011;4236;54.504;9.588;2023-05-10T00:33:43;6.27;;;5.47;;
8397;SDS011;4236;54.504;9.588;2023-05-10T00:36:11;6.67;;;5.97;;
8397;SDS011;4236;54.504;9.588;2023-05-10T00:38:39;6.10;;;5.60;;
8397;SDS011;4236;54.504;9.588;2023-05-10T00:41:07;6.53;;;6.03;;
8397;SDS011;4236;54.504;9.588;2023-05-10T00:43:35;7.07;;;6.47;;
8397;SDS011;4236;54.504;9.588;2023-05-10T00:46:03;6.00;;;5.50;;
8397;SDS011;4236;54.504;9.588;2023-05-10T00:48:31;7.30;;;5.80;;
8397;SDS011;4236;54.504;9.588;2023-05-10T00:50:59;6.10;;;5.70;;
8397;SDS011;4236;54.504;9.588;2023-05-10T00:53:27;6.83;;;5.10;;
8397;SDS011;4236;54.504;9.588;2023-05-10T00:55:58;5.93;;;5.53;;
8397;SDS011;4236;54.504;9.588;2023-05-10T00:58:27;8.30;;;6.37;;
8397;SDS011;4236;54.504;9.588;2023-05-10T01:00:57;6.60;;;5.90;;
8397;SDS011;4236;54.504;9.588;2023-05-10T01:03:25;10.57;;;5.53;;
8397;SDS011;4236;54.504;9.588;2023-05-10T01:05:53;6.57;;;6.17;;
8397;SDS011;4236;54.504;9.588;2023-05-10T01:08:21;7.20;;;6.60;;
8397;SDS011;4236;54.504;9.588;2023-05-10T01:10:49;6.70;;;6.07;;
8397;SDS011;4236;54.504;9.588;2023-05-10T01:13:18;6.60;;;6.07;;
8397;SDS011;4236;54.504;9.588;2023-05-10T01:15:56;7.67;;;6.20;;
8397;SDS011;4236;54.504;9.588;2023-05-10T01:18:26;6.57;;;6.07;;
8397;SDS011;4236;54.504;9.588;2023-05-10T01:20:56;11.87;;;6.50;;
8397;SDS011;4236;54.504;9.588;2023-05-10T01:26:48;6.20;;;5.70;;
8397;SDS011;4236;54.504;9.588;2023-05-10T01:29:57;8.63;;;6.03;;
8397;SDS011;4236;54.504;9.588;2023-05-10T01:32:43;12.80;;;6.70;;
8397;SDS011;4236;54.504;9.588;2023-05-10T01:35:17;7.03;;;6.33;;
8397;SDS011;4236;54.504;9.588;2023-05-10T01:37:50;6.53;;;6.03;;
8397;SDS011;4236;54.504;9.588;2023-05-10T01:40:26;6.73;;;6.23;;
8397;SDS011;4236;54.504;9.588;2023-05-10T01:42:59;6.73;;;5.63;;
8397;SDS011;4236;54.504;9.588;2023-05-10T01:45:30;7.00;;;6.40;;
8397;SDS011;4236;54.504;9.588;2023-05-10T01:48:06;8.20;;;6.30;;
8397;SDS011;4236;54.504;9.588;2023-05-10T01:50:38;5.50;;;5.20;;
8397;SDS011;4236;54.504;9.588;2023-05-10T01:53:09;6.17;;;5.67;;
8397;SDS011;4236;54.504;9.588;2023-05-10T01:55:40;11.83;;;6.00;;
8397;SDS011;4236;54.504;9.588;2023-05-10T01:58:13;9.83;;;6.37;;
8397;SDS011;4236;54.504;9.588;2023-05-10T02:00:43;8.00;;;7.20;;
8397;SDS011;4236;54.504;9.588;2023-05-10T02:03:13;6.90;;;6.40;;
8397;SDS011;4236;54.504;9.588;2023-05-10T02:05:43;6.80;;;6.30;;
8397;SDS011;4236;54.504;9.588;2023-05-10T02:08:13;6.27;;;5.73;;
8397;SDS011;4236;54.504;9.588;2023-05-10T02:10:42;6.87;;;6.37;;
8397;SDS011;4236;54.504;9.588;2023-05-10T02:13:12;6.50;;;5.97;;
8397;SDS011;4236;54.504;9.588;2023-05-10T02:15:41;6.30;;;6.00;;
8397;SDS011;4236;54.504;9.588;2023-05-10T02:18:10;6.93;;;6.33;;
8397;SDS011;4236;54.504;9.588;2023-05-10T02:20:40;7.37;;;6.80;;
8397;SDS011;4236;54.504;9.588;2023-05-10T02:23:10;6.93;;;6.37;;
8397;SDS011;4236;54.504;9.588;2023-05-10T02:25:38;6.37;;;5.57;;
8397;SDS011;4236;54.504;9.588;2023-05-10T02:28:07;6.77;;;6.27;;
8397;SDS011;4236;54.504;9.588;2023-05-10T02:30:37;6.93;;;6.30;;
8397;SDS011;4236;54.504;9.588;2023-05-10T02:33:06;6.17;;;5.87;;
8397;SDS011;4236;54.504;9.588;2023-05-10T02:35:34;6.63;;;6.33;;
8397;SDS011;4236;54.504;9.588;2023-05-10T02:38:06;5.90;;;5.50;;
8397;SDS011;4236;54.504;9.588;2023-05-10T02:40:36;7.20;;;6.67;;
8397;SDS011;4236;54.504;9.588;2023-05-10T02:43:04;6.90;;;6.40;;
8397;SDS011;4236;54.504;9.588;2023-05-10T02:45:36;7.20;;;6.57;;
8397;SDS011;4236;54.504;9.588;2023-05-10T02:48:06;7.07;;;5.40;;
8397;SDS011;4236;54.504;9.588;2023-05-10T02:50:34;7.50;;;6.90;;
8397;SDS011;4236;54.504;9.588;2023-05-10T02:53:05;8.50;;;6.77;;
8397;SDS011;4236;54.504;9.588;2023-05-10T02:55:38;6.93;;;6.53;;
8397;SDS011;4236;54.504;9.588;2023-05-10T02:58:08;7.83;;;7.13;;
8397;SDS011;4236;54.504;9.588;2023-05-10T03:00:36;7.17;;;6.53;;
8397;SDS011;4236;54.504;9.588;2023-05-10T03:03:04;7.30;;;6.80;;
8397;SDS011;4236;54.504;9.588;2023-05-10T03:05:31;7.93;;;7.30;;
8397;SDS011;4236;54.504;9.588;2023-05-10T03:07:59;7.20;;;6.73;;
8397;SDS011;4236;54.504;9.588;2023-05-10T03:10:31;9.13;;;7.17;;
8397;SDS011;4236;54.504;9.588;2023-05-10T03:13:07;7.10;;;6.23;;
8397;SDS011;4236;54.504;9.588;2023-05-10T03:15:46;7.13;;;6.00;;
8397;SDS011;4236;54.504;9.588;2023-05-10T03:18:23;7.20;;;6.50;;
8397;SDS011;4236;54.504;9.588;2023-05-10T03:20:57;7.33;;;6.73;;
8397;SDS011;4236;54.504;9.588;2023-05-10T03:23:27;9.30;;;6.77;;
8397;SDS011;4236;54.504;9.588;2023-05-10T03:26:02;7.60;;;6.90;;
8397;SDS011;4236;54.504;9.588;2023-05-10T03:28:32;7.40;;;6.67;;
8397;SDS011;4236;54.504;9.588;2023-05-10T03:31:01;8.03;;;7.00;;
8397;SDS011;4236;54.504;9.588;2023-05-10T03:33:31;7.00;;;6.60;;
8397;SDS011;4236;54.504;9.588;2023-05-10T03:35:59;7.50;;;6.90;;
8397;SDS011;4236;54.504;9.588;2023-05-10T03:38:27;8.90;;;6.40;;
8397;SDS011;4236;54.504;9.588;2023-05-10T03:40:55;7.93;;;7.00;;
8397;SDS011;4236;54.504;9.588;2023-05-10T03:43:24;9.00;;;7.43;;
8397;SDS011;4236;54.504;9.588;2023-05-10T03:45:52;6.13;;;5.83;;
8397;SDS011;4236;54.504;9.588;2023-05-10T03:48:20;7.90;;;7.30;;
8397;SDS011;4236;54.504;9.588;2023-05-10T03:50:48;6.77;;;6.37;;
8397;SDS011;4236;54.504;9.588;2023-05-10T03:53:16;7.97;;;6.60;;
8397;SDS011;4236;54.504;9.588;2023-05-10T03:55:45;6.60;;;6.00;;
8397;SDS011;4236;54.504;9.588;2023-05-10T03:58:12;10.60;;;7.00;;
8397;SDS011;4236;54.504;9.588;2023-05-10T04:00:41;6.63;;;6.03;;
8397;SDS011;4236;54.504;9.588;2023-05-10T04:03:11;7.00;;;6.57;;
8397;SDS011;4236;54.504;9.588;2023-05-10T04:05:39;7.00;;;6.40;;
8397;SDS011;4236;54.504;9.588;2023-05-10T04:08:07;7.50;;;6.30;;
8397;SDS011;4236;54.504;9.588;2023-05-10T04:10:35;7.53;;;6.80;;
8397;SDS011;4236;54.504;9.588;2023-05-10T04:13:02;6.93;;;6.10;;
8397;SDS011;4236;54.504;9.588;2023-05-10T04:15:30;8.13;;;6.97;;
8397;SDS011;4236;54.504;9.588;2023-05-10T04:17:59;6.93;;;6.43;;
8397;SDS011;4236;54.504;9.588;2023-05-10T04:20:27;6.67;;;6.27;;
8397;SDS011;4236;54.504;9.588;2023-05-10T04:22:55;7.30;;;6.77;;
8397;SDS011;4236;54.504;9.588;2023-05-10T04:25:22;7.93;;;7.23;;
8397;SDS011;4236;54.504;9.588;2023-05-10T04:27:50;7.63;;;7.00;;
8397;SDS011;4236;54.504;9.588;2023-05-10T04:30:19;7.00;;;6.33;;
8397;SDS011;4236;54.504;9.588;2023-05-10T04:32:47;6.73;;;6.13;;
8397;SDS011;4236;54.504;9.588;2023-05-10T04:35:16;7.13;;;6.57;;
8397;SDS011;4236;54.504;9.588;2023-05-10T04:37:43;8.93;;;6.37;;
8397;SDS011;4236;54.504;9.588;2023-05-10T04:40:11;6.00;;;5.50;;
8397;SDS011;4236;54.504;9.588;2023-05-10T04:42:39;7.27;;;6.77;;
8397;SDS011;4236;54.504;9.588;2023-05-10T04:45:08;7.27;;;6.20;;
8397;SDS011;4236;54.504;9.588;2023-05-10T04:47:36;7.53;;;6.83;;
8397;SDS011;4236;54.504;9.588;2023-05-10T04:50:05;6.60;;;6.03;;
8397;SDS011;4236;54.504;9.588;2023-05-10T04:52:34;7.57;;;7.00;;
8397;SDS011;4236;54.504;9.588;2023-05-10T04:55:02;7.40;;;6.90;;
8397;SDS011;4236;54.504;9.588;2023-05-10T04:57:30;7.60;;;6.00;;
8397;SDS011;4236;54.504;9.588;2023-05-10T04:59:58;7.50;;;6.80;;
8397;SDS011;4236;54.504;9.588;2023-05-10T05:02:27;7.00;;;6.50;;
8397;SDS011;4236;54.504;9.588;2023-05-10T05:04:55;6.70;;;6.07;;
8397;SDS011;4236;54.504;9.588;2023-05-10T05:07:24;8.40;;;7.53;;
8397;SDS011;4236;54.504;9.588;2023-05-10T05:09:53;7.60;;;7.00;;
8397;SDS011;4236;54.504;9.588;2023-05-10T05:12:21;7.47;;;7.03;;
8397;SDS011;4236;54.504;9.588;2023-05-10T05:14:49;7.63;;;6.70;;
8397;SDS011;4236;54.504;9.588;2023-05-10T05:17:17;7.17;;;6.70;;
8397;SDS011;4236;54.504;9.588;2023-05-10T05:19:45;7.47;;;6.67;;
8397;SDS011;4236;54.504;9.588;2023-05-10T05:22:13;7.57;;;6.87;;
8397;SDS011;4236;54.504;9.588;2023-05-10T05:24:42;8.20;;;6.70;;
8397;SDS011;4236;54.504;9.588;2023-05-10T05:27:12;6.70;;;6.30;;
8397;SDS011;4236;54.504;9.588;2023-05-10T05:29:40;6.60;;;6.10;;
8397;SDS011;4236;54.504;9.588;2023-05-10T05:32:07;7.40;;;6.80;;
8397;SDS011;4236;54.504;9.588;2023-05-10T05:34:35;7.30;;;6.47;;
8397;SDS011;4236;54.504;9.588;2023-05-10T05:37:03;6.90;;;6.40;;
8397;SDS011;4236;54.504;9.588;2023-05-10T05:39:30;7.60;;;6.77;;
8397;SDS011;4236;54.504;9.588;2023-05-10T05:41:58;6.80;;;6.30;;
8397;SDS011;4236;54.504;9.588;2023-05-10T05:44:27;7.77;;;7.17;;
8397;SDS011;4236;54.504;9.588;2023-05-10T05:46:55;6.70;;;6.30;;
8397;SDS011;4236;54.504;9.588;2023-05-10T05:49:22;7.70;;;6.70;;
8397;SDS011;4236;54.504;9.588;2023-05-10T05:51:50;7.07;;;6.67;;
8397;SDS011;4236;54.504;9.588;2023-05-10T05:54:18;7.07;;;6.40;;
8397;SDS011;4236;54.504;9.588;2023-05-10T05:56:45;8.23;;;6.60;;
8397;SDS011;4236;54.504;9.588;2023-05-10T05:59:13;9.73;;;6.63;;
8397;SDS011;4236;54.504;9.588;2023-05-10T06:01:42;8.13;;;7.33;;
8397;SDS011;4236;54.504;9.588;2023-05-10T06:04:09;7.70;;;6.03;;
8397;SDS011;4236;54.504;9.588;2023-05-10T06:06:37;5.50;;;5.20;;
8397;SDS011;4236;54.504;9.588;2023-05-10T06:09:05;6.47;;;6.00;;
8397;SDS011;4236;54.504;9.588;2023-05-10T06:11:33;5.93;;;5.63;;
8397;SDS011;4236;54.504;9.588;2023-05-10T06:14:00;6.70;;;6.30;;
8397;SDS011;4236;54.504;9.588;2023-05-10T06:16:29;6.43;;;6.00;;
8397;SDS011;4236;54.504;9.588;2023-05-10T06:18:59;6.63;;;6.20;;
8397;SDS011;4236;54.504;9.588;2023-05-10T06:21:27;6.23;;;5.73;;
8397;SDS011;4236;54.504;9.588;2023-05-10T06:23:54;7.67;;;7.00;;
8397;SDS011;4236;54.504;9.588;2023-05-10T06:26:22;8.27;;;5.80;;
8397;SDS011;4236;54.504;9.588;2023-05-10T06:28:49;6.50;;;6.10;;
8397;SDS011;4236;54.504;9.588;2023-05-10T06:31:17;7.07;;;6.53;;
8397;SDS011;4236;54.504;9.588;2023-05-10T06:33:45;6.97;;;6.27;;
8397;SDS011;4236;54.504;9.588;2023-05-10T06:36:14;6.70;;;6.20;;
8397;SDS011;4236;54.504;9.588;2023-05-10T06:38:42;7.10;;;6.50;;
8397;SDS011;4236;54.504;9.588;2023-05-10T06:41:10;6.90;;;6.40;;
8397;SDS011;4236;54.504;9.588;2023-05-10T06:43:37;7.20;;;6.50;;
8397;SDS011;4236;54.504;9.588;2023-05-10T06:46:07;6.27;;;5.97;;
8397;SDS011;4236;54.504;9.588;2023-05-10T06:48:35;7.20;;;6.60;;
8397;SDS011;4236;54.504;9.588;2023-05-10T06:51:02;6.20;;;5.70;;
8397;SDS011;4236;54.504;9.588;2023-05-10T06:53:31;7.57;;;7.07;;
8397;SDS011;4236;54.504;9.588;2023-05-10T06:55:59;7.60;;;6.83;;
8397;SDS011;4236;54.504;9.588;2023-05-10T06:58:29;7.60;;;7.00;;
8397;SDS011;4236;54.504;9.588;2023-05-10T07:01:01;6.97;;;6.40;;
8397;SDS011;4236;54.504;9.588;2023-05-10T07:03:29;6.00;;;5.60;;
8397;SDS011;4236;54.504;9.588;2023-05-10T07:05:59;6.80;;;6.40;;
8397;SDS011;4236;54.504;9.588;2023-05-10T07:08:29;6.60;;;6.30;;
8397;SDS011;4236;54.504;9.588;2023-05-10T07:11:02;7.00;;;6.50;;
8397;SDS011;4236;54.504;9.588;2023-05-10T07:13:31;7.13;;;6.47;;
8397;SDS011;4236;54.504;9.588;2023-05-10T07:15:59;7.80;;;7.20;;
8397;SDS011;4236;54.504;9.588;2023-05-10T07:18:28;7.13;;;6.73;;
8397;SDS011;4236;54.504;9.588;2023-05-10T07:20:56;8.03;;;7.50;;
8397;SDS011;4236;54.504;9.588;2023-05-10T07:23:24;7.43;;;6.93;;
8397;SDS011;4236;54.504;9.588;2023-05-10T07:25:52;8.70;;;7.63;;
8397;SDS011;4236;54.504;9.588;2023-05-10T07:28:21;6.93;;;6.33;;
8397;SDS011;4236;54.504;9.588;2023-05-10T07:30:49;6.60;;;6.20;;
8397;SDS011;4236;54.504;9.588;2023-05-10T07:33:17;7.20;;;6.80;;
8397;SDS011;4236;54.504;9.588;2023-05-10T07:35:45;7.73;;;7.00;;
8397;SDS011;4236;54.504;9.588;2023-05-10T07:38:13;7.33;;;6.63;;
8397;SDS011;4236;54.504;9.588;2023-05-10T07:40:41;7.10;;;6.50;;
8397;SDS011;4236;54.504;9.588;2023-05-10T07:43:08;6.77;;;6.37;;
8397;SDS011;4236;54.504;9.588;2023-05-10T07:45:37;6.83;;;6.37;;
8397;SDS011;4236;54.504;9.588;2023-05-10T07:48:05;7.47;;;7.07;;
8397;SDS011;4236;54.504;9.588;2023-05-10T07:50:33;7.43;;;6.80;;
8397;SDS011;4236;54.504;9.588;2023-05-10T07:53:01;8.00;;;7.37;;
8397;SDS011;4236;54.504;9.588;2023-05-10T07:55:28;6.93;;;6.47;;
8397;SDS011;4236;54.504;9.588;2023-05-10T07:57:56;7.97;;;7.33;;
8397;SDS011;4236;54.504;9.588;2023-05-10T08:00:24;8.23;;;7.20;;
8397;SDS011;4236;54.504;9.588;2023-05-10T08:02:53;8.43;;;7.73;;
8397;SDS011;4236;54.504;9.588;2023-05-10T08:05:21;7.50;;;6.90;;
8397;SDS011;4236;54.504;9.588;2023-05-10T08:07:48;7.17;;;6.67;;
8397;SDS011;4236;54.504;9.588;2023-05-10T08:10:16;7.40;;;6.90;;
8397;SDS011;4236;54.504;9.588;2023-05-10T08:12:44;7.70;;;7.23;;
8397;SDS011;4236;54.504;9.588;2023-05-10T08:15:12;8.87;;;8.07;;
8397;SDS011;4236;54.504;9.588;2023-05-10T08:17:40;10.10;;;7.60;;
8397;SDS011;4236;54.504;9.588;2023-05-10T08:20:09;7.83;;;7.20;;
8397;SDS011;4236;54.504;9.588;2023-05-10T08:22:38;7.97;;;7.47;;
8397;SDS011;4236;54.504;9.588;2023-05-10T08:25:07;7.30;;;6.60;;
8397;SDS011;4236;54.504;9.588;2023-05-10T08:27:35;7.50;;;6.90;;
8397;SDS011;4236;54.504;9.588;2023-05-10T08:30:02;7.80;;;7.30;;
8397;SDS011;4236;54.504;9.588;2023-05-10T08:32:30;7.67;;;6.97;;
8397;SDS011;4236;54.504;9.588;2023-05-10T08:34:58;8.20;;;7.60;;
8397;SDS011;4236;54.504;9.588;2023-05-10T08:37:30;8.27;;;7.70;;
8397;SDS011;4236;54.504;9.588;2023-05-10T08:39:59;8.23;;;7.60;;
8397;SDS011;4236;54.504;9.588;2023-05-10T08:42:27;8.10;;;7.47;;
8397;SDS011;4236;54.504;9.588;2023-05-10T08:44:57;8.30;;;7.60;;
8397;SDS011;4236;54.504;9.588;2023-05-10T08:47:27;8.97;;;8.07;;
8397;SDS011;4236;54.504;9.588;2023-05-10T08:49:55;7.87;;;7.27;;
8397;SDS011;4236;54.504;9.588;2023-05-10T08:52:25;8.20;;;7.70;;
8397;SDS011;4236;54.504;9.588;2023-05-10T08:54:57;8.30;;;7.60;;
8397;SDS011;4236;54.504;9.588;2023-05-10T08:57:25;8.93;;;8.03;;
8397;SDS011;4236;54.504;9.588;2023-05-10T08:59:53;8.70;;;8.00;;
8397;SDS011;4236;54.504;9.588;2023-05-10T09:02:21;8.33;;;7.60;;
8397;SDS011;4236;54.504;9.588;2023-05-10T09:04:50;10.10;;;7.60;;
8397;SDS011;4236;54.504;9.588;2023-05-10T09:07:18;8.40;;;7.70;;
8397;SDS011;4236;54.504;9.588;2023-05-10T09:09:47;8.50;;;7.90;;
8397;SDS011;4236;54.504;9.588;2023-05-10T09:12:17;9.20;;;8.40;;
8397;SDS011;4236;54.504;9.588;2023-05-10T09:14:45;8.90;;;8.23;;
8397;SDS011;4236;54.504;9.588;2023-05-10T09:17:13;8.27;;;7.57;;
8397;SDS011;4236;54.504;9.588;2023-05-10T09:19:41;8.73;;;8.13;;
8397;SDS011;4236;54.504;9.588;2023-05-10T09:22:09;8.70;;;8.10;;
8397;SDS011;4236;54.504;9.588;2023-05-10T09:24:37;9.10;;;8.50;;
8397;SDS011;4236;54.504;9.588;2023-05-10T09:27:08;8.43;;;7.83;;
8397;SDS011;4236;54.504;9.588;2023-05-10T09:29:41;8.80;;;7.93;;
8397;SDS011;4236;54.504;9.588;2023-05-10T09:32:09;8.87;;;8.20;;
8397;SDS011;4236;54.504;9.588;2023-05-10T09:34:39;8.63;;;7.83;;
8397;SDS011;4236;54.504;9.588;2023-05-10T09:37:07;9.23;;;8.43;;
8397;SDS011;4236;54.504;9.588;2023-05-10T09:39:35;8.23;;;7.67;;
8397;SDS011;4236;54.504;9.588;2023-05-10T09:42:04;7.90;;;7.40;;
8397;SDS011;4236;54.504;9.588;2023-05-10T09:44:33;9.10;;;8.47;;
8397;SDS011;4236;54.504;9.588;2023-05-10T09:47:03;8.20;;;7.70;;
8397;SDS011;4236;54.504;9.588;2023-05-10T09:49:31;8.83;;;8.13;;
8397;SDS011;4236;54.504;9.588;2023-05-10T09:51:59;8.77;;;8.10;;
8397;SDS011;4236;54.504;9.588;2023-05-10T09:54:28;9.13;;;8.50;;
8397;SDS011;4236;54.504;9.588;2023-05-10T09:56:56;8.70;;;7.80;;
8397;SDS011;4236;54.504;9.588;2023-05-10T09:59:24;8.43;;;7.67;;
8397;SDS011;4236;54.504;9.588;2023-05-10T10:01:55;9.80;;;8.87;;
8397;SDS011;4236;54.504;9.588;2023-05-10T10:04:25;8.77;;;8.17;;
8397;SDS011;4236;54.504;9.588;2023-05-10T10:07:00;8.93;;;8.03;;
8397;SDS011;4236;54.504;9.588;2023-05-10T10:09:30;13.30;;;8.50;;
8397;SDS011;4236;54.504;9.588;2023-05-10T10:11:58;9.03;;;7.53;;
8397;SDS011;4236;54.504;9.588;2023-05-10T10:14:27;8.57;;;7.87;;
8397;SDS011;4236;54.504;9.588;2023-05-10T10:16:54;8.57;;;7.63;;
8397;SDS011;4236;54.504;9.588;2023-05-10T10:19:35;8.80;;;7.80;;
8397;SDS011;4236;54.504;9.588;2023-05-10T10:22:03;9.27;;;8.57;;
8397;SDS011;4236;54.504;9.588;2023-05-10T10:24:32;9.07;;;8.27;;
8397;SDS011;4236;54.504;9.588;2023-05-10T10:27:01;9.67;;;8.77;;
8397;SDS011;4236;54.504;9.588;2023-05-10T10:29:36;7.87;;;7.27;;
8397;SDS011;4236;54.504;9.588;2023-05-10T10:32:10;10.03;;;8.60;;
8397;SDS011;4236;54.504;9.588;2023-05-10T10:34:48;9.87;;;8.97;;
8397;SDS011;4236;54.504;9.588;2023-05-10T10:37:16;9.30;;;8.50;;
8397;SDS011;4236;54.504;9.588;2023-05-10T10:39:44;8.90;;;8.20;;
8397;SDS011;4236;54.504;9.588;2023-05-10T10:42:11;8.83;;;8.03;;
8397;SDS011;4236;54.504;9.588;2023-05-10T10:44:39;8.53;;;7.67;;
8397;SDS011;4236;54.504;9.588;2023-05-10T10:47:10;9.87;;;8.50;;
8397;SDS011;4236;54.504;9.588;2023-05-10T10:50:06;8.77;;;8.20;;
8397;SDS011;4236;54.504;9.588;2023-05-10T10:52:35;12.27;;;8.70;;
8397;SDS011;4236;54.504;9.588;2023-05-10T10:55:05;9.17;;;8.30;;
8397;SDS011;4236;54.504;9.588;2023-05-10T10:57:42;11.23;;;7.57;;
8397;SDS011;4236;54.504;9.588;2023-05-10T11:00:26;8.33;;;7.63;;
8397;SDS011;4236;54.504;9.588;2023-05-10T11:02:57;8.30;;;7.80;;
8397;SDS011;4236;54.504;9.588;2023-05-10T11:08:17;8.40;;;7.70;;
8397;SDS011;4236;54.504;9.588;2023-05-10T11:11:02;8.30;;;7.70;;
8397;SDS011;4236;54.504;9.588;2023-05-10T11:13:33;9.20;;;8.40;;
8397;SDS011;4236;54.504;9.588;2023-05-10T11:16:11;9.37;;;8.47;;
8397;SDS011;4236;54.504;9.588;2023-05-10T11:19:02;9.17;;;8.23;;
8397;SDS011;4236;54.504;9.588;2023-05-10T11:21:33;9.00;;;8.30;;
8397;SDS011;4236;54.504;9.588;2023-05-10T11:24:01;8.47;;;7.60;;
8397;SDS011;4236;54.504;9.588;2023-05-10T11:26:33;7.37;;;6.87;;
8397;SDS011;4236;54.504;9.588;2023-05-10T11:29:02;8.20;;;7.70;;
8397;SDS011;4236;54.504;9.588;2023-05-10T11:31:31;9.17;;;8.57;;
8397;SDS011;4236;54.504;9.588;2023-05-10T11:34:00;9.30;;;8.53;;
8397;SDS011;4236;54.504;9.588;2023-05-10T11:36:29;9.13;;;7.90;;
8397;SDS011;4236;54.504;9.588;2023-05-10T11:39:03;7.47;;;6.97;;
8397;SDS011;4236;54.504;9.588;2023-05-10T11:41:32;8.70;;;8.13;;
8397;SDS011;4236;54.504;9.588;2023-05-10T11:43:59;8.90;;;8.00;;
8397;SDS011;4236;54.504;9.588;2023-05-10T11:46:27;10.43;;;9.73;;
8397;SDS011;4236;54.504;9.588;2023-05-10T11:48:57;10.10;;;9.30;;
8397;SDS011;4236;54.504;9.588;2023-05-10T11:51:27;11.93;;;10.83;;
8397;SDS011;4236;54.504;9.588;2023-05-10T11:53:56;12.30;;;11.20;;
8397;SDS011;4236;54.504;9.588;2023-05-10T11:56:24;11.60;;;10.50;;
8397;SDS011;4236;54.504;9.588;2023-05-10T11:58:53;12.37;;;11.23;;
8397;SDS011;4236;54.504;9.588;2023-05-10T12:01:23;18.37;;;12.23;;
8397;SDS011;4236;54.504;9.588;2023-05-10T12:03:51;13.30;;;12.00;;
8397;SDS011;4236;54.504;9.588;2023-05-10T12:06:21;12.27;;;11.37;;
8397;SDS011;4236;54.504;9.588;2023-05-10T12:08:49;14.63;;;12.77;;
8397;SDS011;4236;54.504;9.588;2023-05-10T12:11:23;14.70;;;13.07;;
8397;SDS011;4236;54.504;9.588;2023-05-10T12:13:52;13.20;;;12.10;;
8397;SDS011;4236;54.504;9.588;2023-05-10T12:16:20;14.27;;;12.87;;
8397;SDS011;4236;54.504;9.588;2023-05-10T12:18:49;14.70;;;13.30;;
8397;SDS011;4236;54.504;9.588;2023-05-10T12:21:18;14.27;;;13.07;;
8397;SDS011;4236;54.504;9.588;2023-05-10T12:23:48;15.93;;;14.40;;
8397;SDS011;4236;54.504;9.588;2023-05-10T12:26:18;14.87;;;13.37;;
8397;SDS011;4236;54.504;9.588;2023-05-10T12:28:50;16.27;;;14.60;;
8397;SDS011;4236;54.504;9.588;2023-05-10T12:31:18;15.17;;;13.77;;
8397;SDS011;4236;54.504;9.588;2023-05-10T12:33:46;15.67;;;14.30;;
8397;SDS011;4236;54.504;9.588;2023-05-10T12:36:15;15.73;;;14.30;;
8397;SDS011;4236;54.504;9.588;2023-05-10T12:38:44;15.50;;;13.97;;
8397;SDS011;4236;54.504;9.588;2023-05-10T12:41:14;16.23;;;14.70;;
8397;SDS011;4236;54.504;9.588;2023-05-10T12:43:44;17.27;;;15.67;;
8397;SDS011;4236;54.504;9.588;2023-05-10T12:46:13;17.53;;;15.93;;
8397;SDS011;4236;54.504;9.588;2023-05-10T12:48:42;16.33;;;14.93;;
8397;SDS011;4236;54.504;9.588;2023-05-10T12:51:11;17.30;;;15.60;;
8397;SDS011;4236;54.504;9.588;2023-05-10T12:53:41;17.03;;;15.63;;
8397;SDS011;4236;54.504;9.588;2023-05-10T12:56:14;17.17;;;15.70;;
8397;SDS011;4236;54.504;9.588;2023-05-10T12:58:42;17.07;;;15.57;;
8397;SDS011;4236;54.504;9.588;2023-05-10T13:01:15;17.23;;;15.77;;
8397;SDS011;4236;54.504;9.588;2023-05-10T13:03:43;16.27;;;14.97;;
8397;SDS011;4236;54.504;9.588;2023-05-10T13:06:10;16.90;;;15.37;;
8397;SDS011;4236;54.504;9.588;2023-05-10T13:08:39;16.83;;;15.60;;
8397;SDS011;4236;54.504;9.588;2023-05-10T13:11:07;15.10;;;13.80;;
8397;SDS011;4236;54.504;9.588;2023-05-10T13:13:34;17.07;;;15.47;;
8397;SDS011;4236;54.504;9.588;2023-05-10T13:16:02;16.87;;;15.40;;
8397;SDS011;4236;54.504;9.588;2023-05-10T13:18:32;17.27;;;15.70;;
8397;SDS011;4236;54.504;9.588;2023-05-10T13:20:59;18.20;;;16.70;;
8397;SDS011;4236;54.504;9.588;2023-05-10T13:23:28;20.17;;;18.17;;
8397;SDS011;4236;54.504;9.588;2023-05-10T13:25:56;18.13;;;16.53;;
8397;SDS011;4236;54.504;9.588;2023-05-10T13:28:23;17.70;;;16.30;;
8397;SDS011;4236;54.504;9.588;2023-05-10T13:30:52;15.90;;;14.57;;
8397;SDS011;4236;54.504;9.588;2023-05-10T13:33:20;18.60;;;16.80;;
8397;SDS011;4236;54.504;9.588;2023-05-10T13:35:49;18.97;;;17.33;;
8397;SDS011;4236;54.504;9.588;2023-05-10T13:38:19;19.63;;;16.97;;
8397;SDS011;4236;54.504;9.588;2023-05-10T13:40:48;18.60;;;16.90;;
8397;SDS011;4236;54.504;9.588;2023-05-10T13:43:18;17.80;;;16.40;;
8397;SDS011;4236;54.504;9.588;2023-05-10T13:45:46;18.40;;;16.93;;
8397;SDS011;4236;54.504;9.588;2023-05-10T13:48:14;19.07;;;16.73;;
8397;SDS011;4236;54.504;9.588;2023-05-10T13:50:42;16.83;;;15.43;;
8397;SDS011;4236;54.504;9.588;2023-05-10T13:53:11;19.00;;;16.67;;
8397;SDS011;4236;54.504;9.588;2023-05-10T13:55:40;19.20;;;17.33;;
8397;SDS011;4236;54.504;9.588;2023-05-10T13:58:08;17.20;;;15.70;;
8397;SDS011;4236;54.504;9.588;2023-05-10T14:00:36;17.43;;;15.60;;
8397;SDS011;4236;54.504;9.588;2023-05-10T14:03:04;18.37;;;16.70;;
8397;SDS011;4236;54.504;9.588;2023-05-10T14:05:32;16.63;;;15.33;;
8397;SDS011;4236;54.504;9.588;2023-05-10T14:08:00;16.50;;;15.10;;
8397;SDS011;4236;54.504;9.588;2023-05-10T14:10:29;16.63;;;15.03;;
8397;SDS011;4236;54.504;9.588;2023-05-10T14:12:57;16.47;;;14.87;;
8397;SDS011;4236;54.504;9.588;2023-05-10T14:15:25;16.60;;;15.20;;
8397;SDS011;4236;54.504;9.588;2023-05-10T14:17:53;19.53;;;17.43;;
8397;SDS011;4236;54.504;9.588;2023-05-10T14:20:20;18.17;;;16.47;;
8397;SDS011;4236;54.504;9.588;2023-05-10T14:22:48;16.47;;;15.07;;
8397;SDS011;4236;54.504;9.588;2023-05-10T14:25:15;16.30;;;15.00;;
8397;SDS011;4236;54.504;9.588;2023-05-10T14:27:45;17.13;;;15.33;;
8397;SDS011;4236;54.504;9.588;2023-05-10T14:30:14;17.70;;;16.20;;
8397;SDS011;4236;54.504;9.588;2023-05-10T14:32:42;17.20;;;15.70;;
8397;SDS011;4236;54.504;9.588;2023-05-10T14:35:10;17.77;;;16.30;;
8397;SDS011;4236;54.504;9.588;2023-05-10T14:37:41;17.37;;;15.77;;
8397;SDS011;4236;54.504;9.588;2023-05-10T14:40:09;19.40;;;17.67;;
8397;SDS011;4236;54.504;9.588;2023-05-10T14:42:38;18.60;;;17.00;;
8397;SDS011;4236;54.504;9.588;2023-05-10T14:45:07;19.03;;;17.03;;
8397;SDS011;4236;54.504;9.588;2023-05-10T14:47:36;18.90;;;17.20;;
8397;SDS011;4236;54.504;9.588;2023-05-10T14:50:04;22.40;;;18.80;;
8397;SDS011;4236;54.504;9.588;2023-05-10T14:52:33;19.47;;;17.63;;
8397;SDS011;4236;54.504;9.588;2023-05-10T14:55:01;19.00;;;17.33;;
8397;SDS011;4236;54.504;9.588;2023-05-10T14:57:28;18.90;;;17.17;;
8397;SDS011;4236;54.504;9.588;2023-05-10T14:59:56;19.67;;;17.97;;
8397;SDS011;4236;54.504;9.588;2023-05-10T15:02:26;20.97;;;19.00;;
8397;SDS011;4236;54.504;9.588;2023-05-10T15:04:54;18.70;;;16.83;;
8397;SDS011;4236;54.504;9.588;2023-05-10T15:07:22;19.70;;;18.00;;
8397;SDS011;4236;54.504;9.588;2023-05-10T15:09:50;21.07;;;19.30;;
8397;SDS011;4236;54.504;9.588;2023-05-10T15:12:18;16.67;;;15.37;;
8397;SDS011;4236;54.504;9.588;2023-05-10T15:14:46;16.60;;;15.30;;
8397;SDS011;4236;54.504;9.588;2023-05-10T15:17:14;14.10;;;13.00;;
8397;SDS011;4236;54.504;9.588;2023-05-10T15:19:43;13.03;;;12.03;;
8397;SDS011;4236;54.504;9.588;2023-05-10T15:22:11;11.63;;;10.83;;
8397;SDS011;4236;54.504;9.588;2023-05-10T15:24:38;10.40;;;9.70;;
8397;SDS011;4236;54.504;9.588;2023-05-10T15:27:06;8.83;;;8.33;;